sensor_id;sensor_type;location;lat;lon;timestamp;P1;durP1;ratioP1;P2;durP2;ratioP2
23490;SDS011;14683;50.038;8.078;2022-11-20T03:49:50;52.03;;;23.65;;
23490;SDS011;14683;50.038;8.078;2022-11-20T03:52:17;52.35;;;23.75;;
23490;SDS011;14683;50.038;8.078;2022-11-20T03:54:43;48.55;;;23.05;;
23490;SDS011;14683;50.038;8.078;2022-11-20T03:57:09;47.55;;;22.58;;
23490;SDS011;14683;50.038;8.078;2022-11-20T03:59:35;51.95;;;22.92;;
23490;SDS011;14683;50.038;8.078;2022-11-20T04:02:01;43.05;;;21.70;;
23490;SDS011;14683;50.038;8.078;2022-11-20T04:04:27;48.97;;;22.38;;
23490;SDS011;14683;50.038;8.078;2022-11-20T04:06:53;44.17;;;22.67;;
23490;SDS011;14683;50.038;8.078;2022-11-20T04:09:19;43.25;;;21.15;;
23490;SDS011;14683;50.038;8.078;2022-11-20T04:11:45;47.88;;;22.73;;
23490;SDS011;14683;50.038;8.078;2022-11-20T04:14:14;45.17;;;22.40;;
23490;SDS011;14683;50.038;8.078;2022-11-20T04:16:41;47.33;;;21.58;;
23490;SDS011;14683;50.038;8.078;2022-11-20T04:19:12;56.00;;;25.40;;
23490;SDS011;14683;50.038;8.078;2022-11-20T04:21:39;50.78;;;24.35;;
23490;SDS011;14683;50.038;8.078;2022-11-20T04:24:05;49.63;;;23.58;;
23490;SDS011;14683;50.038;8.078;2022-11-20T04:26:32;44.55;;;21.38;;
23490;SDS011;14683;50.038;8.078;2022-11-20T04:28:59;46.53;;;22.85;;
23490;SDS011;14683;50.038;8.078;2022-11-20T04:31:28;50.92;;;23.55;;
23490;SDS011;14683;50.038;8.078;2022-11-20T04:33:58;48.05;;;23.13;;
23490;SDS011;14683;50.038;8.078;2022-11-20T04:36:26;48.78;;;22.90;;
23490;SDS011;14683;50.038;8.078;2022-11-20T04:38:57;48.80;;;22.20;;
23490;SDS011;14683;50.038;8.078;2022-11-20T04:41:25;49.35;;;23.15;;
23490;SDS011;14683;50.038;8.078;2022-11-20T04:43:53;48.10;;;22.00;;
23490;SDS011;14683;50.038;8.078;2022-11-20T04:46:25;47.35;;;23.05;;
23490;SDS011;14683;50.038;8.078;2022-11-20T04:48:52;55.08;;;24.05;;
23490;SDS011;14683;50.038;8.078;2022-11-20T04:51:18;50.72;;;24.23;;
23490;SDS011;14683;50.038;8.078;2022-11-20T04:53:44;50.33;;;24.45;;
23490;SDS011;14683;50.038;8.078;2022-11-20T04:56:10;52.80;;;24.48;;
23490;SDS011;14683;50.038;8.078;2022-11-20T04:58:38;47.95;;;23.17;;
23490;SDS011;14683;50.038;8.078;2022-11-20T05:01:09;51.78;;;22.98;;
23490;SDS011;14683;50.038;8.078;2022-11-20T05:03:37;48.55;;;23.63;;
23490;SDS011;14683;50.038;8.078;2022-11-20T05:06:04;52.90;;;23.63;;
23490;SDS011;14683;50.038;8.078;2022-11-20T05:08:31;53.03;;;23.00;;
23490;SDS011;14683;50.038;8.078;2022-11-20T05:11:02;54.70;;;23.25;;
23490;SDS011;14683;50.038;8.078;2022-11-20T05:13:30;53.78;;;22.60;;
23490;SDS011;14683;50.038;8.078;2022-11-20T05:16:04;54.65;;;23.08;;
23490;SDS011;14683;50.038;8.078;2022-11-20T05:18:30;55.25;;;24.15;;
23490;SDS011;14683;50.038;8.078;2022-11-20T05:20:56;54.22;;;23.92;;
23490;SDS011;14683;50.038;8.078;2022-11-20T05:23:23;54.97;;;24.52;;
23490;SDS011;14683;50.038;8.078;2022-11-20T05:25:53;47.95;;;22.63;;
23490;SDS011;14683;50.038;8.078;2022-11-20T05:28:21;51.78;;;24.80;;
23490;SDS011;14683;50.038;8.078;2022-11-20T05:30:48;47.25;;;22.30;;
23490;SDS011;14683;50.038;8.078;2022-11-20T05:33:14;56.05;;;24.50;;
23490;SDS011;14683;50.038;8.078;2022-11-20T05:35:40;54.67;;;23.52;;
23490;SDS011;14683;50.038;8.078;2022-11-20T05:38:06;50.80;;;23.92;;
23490;SDS011;14683;50.038;8.078;2022-11-20T05:40:33;51.58;;;22.65;;
23490;SDS011;14683;50.038;8.078;2022-11-20T05:42:59;48.53;;;23.48;;
23490;SDS011;14683;50.038;8.078;2022-11-20T05:45:25;50.60;;;22.58;;
23490;SDS011;14683;50.038;8.078;2022-11-20T05:47:51;51.55;;;22.42;;
23490;SDS011;14683;50.038;8.078;2022-11-20T05:50:17;49.47;;;22.80;;
23490;SDS011;14683;50.038;8.078;2022-11-20T05:52:43;51.13;;;23.38;;
23490;SDS011;14683;50.038;8.078;2022-11-20T05:55:09;51.38;;;22.42;;
23490;SDS011;14683;50.038;8.078;2022-11-20T05:57:36;47.90;;;22.58;;
23490;SDS011;14683;50.038;8.078;2022-11-20T06:00:02;47.08;;;22.17;;
23490;SDS011;14683;50.038;8.078;2022-11-20T06:02:30;47.28;;;22.35;;
23490;SDS011;14683;50.038;8.078;2022-11-20T06:04:56;52.45;;;23.27;;
23490;SDS011;14683;50.038;8.078;2022-11-20T06:07:22;55.00;;;24.10;;
23490;SDS011;14683;50.038;8.078;2022-11-20T06:09:48;50.13;;;23.45;;
23490;SDS011;14683;50.038;8.078;2022-11-20T06:14:40;55.70;;;24.63;;
23490;SDS011;14683;50.038;8.078;2022-11-20T06:19:31;49.53;;;22.38;;
23490;SDS011;14683;50.038;8.078;2022-11-20T06:21:57;51.15;;;23.05;;
23490;SDS011;14683;50.038;8.078;2022-11-20T06:24:23;53.67;;;24.13;;
23490;SDS011;14683;50.038;8.078;2022-11-20T06:26:51;56.85;;;23.30;;
23490;SDS011;14683;50.038;8.078;2022-11-20T06:29:17;53.15;;;22.27;;
23490;SDS011;14683;50.038;8.078;2022-11-20T06:31:43;55.00;;;25.38;;
23490;SDS011;14683;50.038;8.078;2022-11-20T06:34:09;50.80;;;23.08;;
23490;SDS011;14683;50.038;8.078;2022-11-20T06:36:35;49.70;;;22.38;;
23490;SDS011;14683;50.038;8.078;2022-11-20T06:39:01;58.50;;;24.10;;
23490;SDS011;14683;50.038;8.078;2022-11-20T06:41:28;52.50;;;23.20;;
23490;SDS011;14683;50.038;8.078;2022-11-20T06:43:54;53.35;;;22.20;;
23490;SDS011;14683;50.038;8.078;2022-11-20T06:46:20;50.85;;;21.55;;
23490;SDS011;14683;50.038;8.078;2022-11-20T06:48:47;50.90;;;21.88;;
23490;SDS011;14683;50.038;8.078;2022-11-20T06:51:13;43.30;;;20.23;;
23490;SDS011;14683;50.038;8.078;2022-11-20T06:53:39;45.97;;;20.23;;
23490;SDS011;14683;50.038;8.078;2022-11-20T06:56:06;52.33;;;22.50;;
23490;SDS011;14683;50.038;8.078;2022-11-20T06:58:32;49.08;;;21.38;;
23490;SDS011;14683;50.038;8.078;2022-11-20T07:00:59;48.30;;;20.67;;
23490;SDS011;14683;50.038;8.078;2022-11-20T07:03:26;47.92;;;20.15;;
23490;SDS011;14683;50.038;8.078;2022-11-20T07:05:56;52.53;;;22.88;;
23490;SDS011;14683;50.038;8.078;2022-11-20T07:08:22;48.83;;;22.63;;
23490;SDS011;14683;50.038;8.078;2022-11-20T07:10:48;48.05;;;21.48;;
23490;SDS011;14683;50.038;8.078;2022-11-20T07:13:14;51.20;;;22.00;;
23490;SDS011;14683;50.038;8.078;2022-11-20T07:15:40;48.10;;;21.48;;
23490;SDS011;14683;50.038;8.078;2022-11-20T07:18:06;49.85;;;21.65;;
23490;SDS011;14683;50.038;8.078;2022-11-20T07:20:32;47.70;;;21.48;;
23490;SDS011;14683;50.038;8.078;2022-11-20T07:25:27;52.40;;;23.77;;
23490;SDS011;14683;50.038;8.078;2022-11-20T07:27:57;52.72;;;23.00;;
23490;SDS011;14683;50.038;8.078;2022-11-20T07:30:24;55.45;;;22.92;;
23490;SDS011;14683;50.038;8.078;2022-11-20T07:32:51;54.28;;;23.25;;
23490;SDS011;14683;50.038;8.078;2022-11-20T07:35:17;45.63;;;20.58;;
23490;SDS011;14683;50.038;8.078;2022-11-20T07:37:43;50.08;;;21.95;;
23490;SDS011;14683;50.038;8.078;2022-11-20T07:40:20;54.45;;;22.42;;
23490;SDS011;14683;50.038;8.078;2022-11-20T07:42:49;52.35;;;22.38;;
23490;SDS011;14683;50.038;8.078;2022-11-20T07:45:20;53.95;;;23.75;;
23490;SDS011;14683;50.038;8.078;2022-11-20T07:47:47;59.58;;;24.80;;
23490;SDS011;14683;50.038;8.078;2022-11-20T07:50:13;58.95;;;24.77;;
23490;SDS011;14683;50.038;8.078;2022-11-20T07:52:39;50.92;;;23.33;;
23490;SDS011;14683;50.038;8.078;2022-11-20T07:55:06;56.72;;;23.02;;
23490;SDS011;14683;50.038;8.078;2022-11-20T07:57:32;50.20;;;22.45;;
23490;SDS011;14683;50.038;8.078;2022-11-20T08:02:24;52.65;;;22.48;;
23490;SDS011;14683;50.038;8.078;2022-11-20T08:07:16;47.90;;;22.20;;
23490;SDS011;14683;50.038;8.078;2022-11-20T08:09:42;48.80;;;22.85;;
23490;SDS011;14683;50.038;8.078;2022-11-20T08:14:53;44.90;;;20.20;;
23490;SDS011;14683;50.038;8.078;2022-11-20T08:17:20;44.38;;;20.15;;
23490;SDS011;14683;50.038;8.078;2022-11-20T08:19:47;40.38;;;19.98;;
23490;SDS011;14683;50.038;8.078;2022-11-20T08:24:38;40.38;;;18.13;;
23490;SDS011;14683;50.038;8.078;2022-11-20T08:29:30;35.00;;;17.98;;
23490;SDS011;14683;50.038;8.078;2022-11-20T08:34:22;40.55;;;19.42;;
23490;SDS011;14683;50.038;8.078;2022-11-20T08:39:14;38.90;;;18.88;;
23490;SDS011;14683;50.038;8.078;2022-11-20T08:44:06;36.80;;;17.20;;
23490;SDS011;14683;50.038;8.078;2022-11-20T08:46:37;36.00;;;17.98;;
23490;SDS011;14683;50.038;8.078;2022-11-20T08:49:05;38.72;;;18.67;;
23490;SDS011;14683;50.038;8.078;2022-11-20T08:51:32;38.78;;;19.63;;
23490;SDS011;14683;50.038;8.078;2022-11-20T08:53:58;38.60;;;20.30;;
23490;SDS011;14683;50.038;8.078;2022-11-20T08:56:24;41.40;;;20.00;;
23490;SDS011;14683;50.038;8.078;2022-11-20T09:03:44;39.97;;;20.00;;
23490;SDS011;14683;50.038;8.078;2022-11-20T09:08:35;37.10;;;18.85;;
23490;SDS011;14683;50.038;8.078;2022-11-20T09:11:02;40.03;;;20.75;;
23490;SDS011;14683;50.038;8.078;2022-11-20T09:13:28;47.22;;;22.30;;
23490;SDS011;14683;50.038;8.078;2022-11-20T09:15:55;44.38;;;22.85;;
23490;SDS011;14683;50.038;8.078;2022-11-20T09:18:23;45.83;;;21.77;;
23490;SDS011;14683;50.038;8.078;2022-11-20T09:20:49;48.10;;;21.60;;
23490;SDS011;14683;50.038;8.078;2022-11-20T09:25:41;43.92;;;21.80;;
23490;SDS011;14683;50.038;8.078;2022-11-20T09:28:07;41.33;;;21.98;;
23490;SDS011;14683;50.038;8.078;2022-11-20T09:30:33;43.97;;;22.42;;
23490;SDS011;14683;50.038;8.078;2022-11-20T09:35:25;45.63;;;21.83;;
23490;SDS011;14683;50.038;8.078;2022-11-20T09:54:17;47.40;;;24.30;;
23490;SDS011;14683;50.038;8.078;2022-11-20T09:56:46;42.45;;;22.90;;
23490;SDS011;14683;50.038;8.078;2022-11-20T09:59:20;42.70;;;22.73;;
23490;SDS011;14683;50.038;8.078;2022-11-20T10:01:49;45.83;;;21.95;;
23490;SDS011;14683;50.038;8.078;2022-11-20T10:04:15;44.33;;;23.63;;
23490;SDS011;14683;50.038;8.078;2022-11-20T10:09:31;46.40;;;23.48;;
23490;SDS011;14683;50.038;8.078;2022-11-20T10:12:04;48.30;;;22.23;;
23490;SDS011;14683;50.038;8.078;2022-11-20T10:26:01;52.83;;;25.00;;
23490;SDS011;14683;50.038;8.078;2022-11-20T10:28:33;54.72;;;24.95;;
23490;SDS011;14683;50.038;8.078;2022-11-20T10:31:06;57.60;;;26.10;;
23490;SDS011;14683;50.038;8.078;2022-11-20T10:33:41;48.60;;;23.98;;
23490;SDS011;14683;50.038;8.078;2022-11-20T10:44:26;60.10;;;26.75;;
23490;SDS011;14683;50.038;8.078;2022-11-20T10:47:15;52.22;;;23.42;;
23490;SDS011;14683;50.038;8.078;2022-11-20T10:49:46;55.58;;;24.77;;
23490;SDS011;14683;50.038;8.078;2022-11-20T11:00:14;56.72;;;25.13;;
23490;SDS011;14683;50.038;8.078;2022-11-20T11:02:49;54.13;;;25.13;;
23490;SDS011;14683;50.038;8.078;2022-11-20T11:05:18;51.08;;;24.88;;
23490;SDS011;14683;50.038;8.078;2022-11-20T11:07:48;53.45;;;25.25;;
23490;SDS011;14683;50.038;8.078;2022-11-20T11:10:20;52.05;;;24.15;;
23490;SDS011;14683;50.038;8.078;2022-11-20T11:12:53;54.63;;;23.88;;
23490;SDS011;14683;50.038;8.078;2022-11-20T11:17:56;44.85;;;21.48;;
23490;SDS011;14683;50.038;8.078;2022-11-20T11:20:23;46.17;;;22.30;;
23490;SDS011;14683;50.038;8.078;2022-11-20T11:25:24;39.75;;;19.33;;
23490;SDS011;14683;50.038;8.078;2022-11-20T11:27:51;42.00;;;20.95;;
23490;SDS011;14683;50.038;8.078;2022-11-20T11:30:19;40.72;;;19.75;;
23490;SDS011;14683;50.038;8.078;2022-11-20T11:32:45;44.90;;;22.58;;
23490;SDS011;14683;50.038;8.078;2022-11-20T11:35:25;44.95;;;23.00;;
23490;SDS011;14683;50.038;8.078;2022-11-20T11:38:03;45.85;;;23.05;;
23490;SDS011;14683;50.038;8.078;2022-11-20T11:40:31;45.08;;;22.45;;
23490;SDS011;14683;50.038;8.078;2022-11-20T11:43:01;42.78;;;21.17;;
23490;SDS011;14683;50.038;8.078;2022-11-20T11:45:29;43.33;;;20.90;;
23490;SDS011;14683;50.038;8.078;2022-11-20T11:50:26;44.67;;;21.60;;
23490;SDS011;14683;50.038;8.078;2022-11-20T11:53:02;42.40;;;21.40;;
23490;SDS011;14683;50.038;8.078;2022-11-20T11:58:14;42.63;;;21.38;;
23490;SDS011;14683;50.038;8.078;2022-11-20T12:00:56;44.13;;;23.05;;
23490;SDS011;14683;50.038;8.078;2022-11-20T12:03:42;39.65;;;21.33;;
23490;SDS011;14683;50.038;8.078;2022-11-20T12:06:14;40.38;;;20.23;;
23490;SDS011;14683;50.038;8.078;2022-11-20T12:09:02;39.03;;;20.88;;
23490;SDS011;14683;50.038;8.078;2022-11-20T12:16:41;36.13;;;19.33;;
23490;SDS011;14683;50.038;8.078;2022-11-20T12:24:14;33.78;;;17.70;;
23490;SDS011;14683;50.038;8.078;2022-11-20T12:26:47;29.83;;;16.90;;
23490;SDS011;14683;50.038;8.078;2022-11-20T12:35:29;32.35;;;16.90;;
23490;SDS011;14683;50.038;8.078;2022-11-20T12:41:22;32.45;;;17.27;;
23490;SDS011;14683;50.038;8.078;2022-11-20T12:44:35;32.75;;;19.15;;
23490;SDS011;14683;50.038;8.078;2022-11-20T12:47:36;33.47;;;18.30;;
23490;SDS011;14683;50.038;8.078;2022-11-20T12:53:31;32.35;;;16.73;;
23490;SDS011;14683;50.038;8.078;2022-11-20T13:06:59;28.52;;;15.23;;
23490;SDS011;14683;50.038;8.078;2022-11-20T13:09:27;27.85;;;15.88;;
23490;SDS011;14683;50.038;8.078;2022-11-20T13:14:34;24.98;;;15.25;;
23490;SDS011;14683;50.038;8.078;2022-11-20T13:19:52;32.42;;;18.88;;
23490;SDS011;14683;50.038;8.078;2022-11-20T13:22:26;42.00;;;24.83;;
23490;SDS011;14683;50.038;8.078;2022-11-20T13:24:53;26.55;;;17.05;;
23490;SDS011;14683;50.038;8.078;2022-11-20T13:27:22;24.08;;;14.30;;
23490;SDS011;14683;50.038;8.078;2022-11-20T13:32:58;23.65;;;13.43;;
23490;SDS011;14683;50.038;8.078;2022-11-20T13:35:37;24.10;;;13.85;;
23490;SDS011;14683;50.038;8.078;2022-11-20T13:38:08;23.85;;;13.65;;
23490;SDS011;14683;50.038;8.078;2022-11-20T13:40:37;23.33;;;13.52;;
23490;SDS011;14683;50.038;8.078;2022-11-20T13:43:37;21.70;;;13.30;;
23490;SDS011;14683;50.038;8.078;2022-11-20T13:46:06;30.65;;;18.95;;
23490;SDS011;14683;50.038;8.078;2022-11-20T13:48:34;25.88;;;15.00;;
23490;SDS011;14683;50.038;8.078;2022-11-20T13:56:23;23.67;;;13.55;;
23490;SDS011;14683;50.038;8.078;2022-11-20T14:01:30;25.15;;;14.63;;
23490;SDS011;14683;50.038;8.078;2022-11-20T14:04:05;25.65;;;15.25;;
23490;SDS011;14683;50.038;8.078;2022-11-20T14:06:43;24.08;;;14.70;;
23490;SDS011;14683;50.038;8.078;2022-11-20T14:09:12;24.25;;;14.43;;
23490;SDS011;14683;50.038;8.078;2022-11-20T14:11:49;25.55;;;14.32;;
23490;SDS011;14683;50.038;8.078;2022-11-20T14:16:42;28.30;;;14.82;;
23490;SDS011;14683;50.038;8.078;2022-11-20T14:21:48;27.52;;;16.20;;
23490;SDS011;14683;50.038;8.078;2022-11-20T14:24:19;26.88;;;15.93;;
23490;SDS011;14683;50.038;8.078;2022-11-20T14:26:46;22.88;;;14.10;;
23490;SDS011;14683;50.038;8.078;2022-11-20T14:29:14;30.13;;;15.35;;
23490;SDS011;14683;50.038;8.078;2022-11-20T14:31:42;29.55;;;16.35;;
23490;SDS011;14683;50.038;8.078;2022-11-20T14:34:17;28.90;;;16.55;;
23490;SDS011;14683;50.038;8.078;2022-11-20T14:36:44;31.58;;;17.02;;
23490;SDS011;14683;50.038;8.078;2022-11-20T14:39:11;28.35;;;17.05;;
23490;SDS011;14683;50.038;8.078;2022-11-20T14:41:38;33.50;;;17.17;;
23490;SDS011;14683;50.038;8.078;2022-11-20T14:46:29;29.77;;;16.42;;
23490;SDS011;14683;50.038;8.078;2022-11-20T14:48:57;27.42;;;15.15;;
23490;SDS011;14683;50.038;8.078;2022-11-20T14:51:31;28.15;;;16.85;;
23490;SDS011;14683;50.038;8.078;2022-11-20T14:54:19;27.05;;;15.48;;
23490;SDS011;14683;50.038;8.078;2022-11-20T14:56:56;28.55;;;16.08;;
23490;SDS011;14683;50.038;8.078;2022-11-20T14:59:27;31.60;;;18.02;;
23490;SDS011;14683;50.038;8.078;2022-11-20T15:02:00;31.42;;;17.75;;
23490;SDS011;14683;50.038;8.078;2022-11-20T15:04:29;33.50;;;18.00;;
23490;SDS011;14683;50.038;8.078;2022-11-20T15:09:22;31.98;;;17.10;;
23490;SDS011;14683;50.038;8.078;2022-11-20T15:11:55;37.20;;;19.23;;
23490;SDS011;14683;50.038;8.078;2022-11-20T15:14:23;35.33;;;19.05;;
23490;SDS011;14683;50.038;8.078;2022-11-20T15:16:51;34.67;;;18.35;;
23490;SDS011;14683;50.038;8.078;2022-11-20T15:19:19;31.15;;;18.08;;
23490;SDS011;14683;50.038;8.078;2022-11-20T15:21:47;32.75;;;19.35;;
23490;SDS011;14683;50.038;8.078;2022-11-20T15:26:38;33.35;;;18.42;;
23490;SDS011;14683;50.038;8.078;2022-11-20T15:29:08;42.33;;;20.10;;
23490;SDS011;14683;50.038;8.078;2022-11-20T15:31:36;46.25;;;22.52;;
23490;SDS011;14683;50.038;8.078;2022-11-20T15:36:27;41.13;;;20.45;;
23490;SDS011;14683;50.038;8.078;2022-11-20T15:41:19;38.13;;;20.45;;
23490;SDS011;14683;50.038;8.078;2022-11-20T15:46:13;45.83;;;21.57;;
23490;SDS011;14683;50.038;8.078;2022-11-20T15:48:41;46.55;;;23.80;;
23490;SDS011;14683;50.038;8.078;2022-11-20T15:53:42;44.33;;;22.67;;
23490;SDS011;14683;50.038;8.078;2022-11-20T15:58:36;46.33;;;23.85;;
23490;SDS011;14683;50.038;8.078;2022-11-20T16:03:28;49.78;;;23.80;;
23490;SDS011;14683;50.038;8.078;2022-11-20T16:05:55;51.95;;;25.10;;
23490;SDS011;14683;50.038;8.078;2022-11-20T16:10:47;55.45;;;26.48;;
23490;SDS011;14683;50.038;8.078;2022-11-20T16:15:59;58.33;;;26.67;;
23490;SDS011;14683;50.038;8.078;2022-11-20T16:18:26;57.92;;;28.55;;
23490;SDS011;14683;50.038;8.078;2022-11-20T16:20:53;58.67;;;27.60;;
23490;SDS011;14683;50.038;8.078;2022-11-20T16:23:20;52.35;;;25.50;;
23490;SDS011;14683;50.038;8.078;2022-11-20T16:25:47;61.08;;;27.67;;
23490;SDS011;14683;50.038;8.078;2022-11-20T16:28:13;62.75;;;28.90;;
23490;SDS011;14683;50.038;8.078;2022-11-20T16:30:39;54.50;;;27.05;;
23490;SDS011;14683;50.038;8.078;2022-11-20T16:33:15;52.83;;;26.08;;
23490;SDS011;14683;50.038;8.078;2022-11-20T16:35:42;49.40;;;25.67;;
23490;SDS011;14683;50.038;8.078;2022-11-20T16:38:09;55.08;;;27.02;;
23490;SDS011;14683;50.038;8.078;2022-11-20T16:40:35;59.33;;;28.15;;
23490;SDS011;14683;50.038;8.078;2022-11-20T16:43:06;49.28;;;23.52;;
23490;SDS011;14683;50.038;8.078;2022-11-20T16:45:39;54.40;;;27.60;;
23490;SDS011;14683;50.038;8.078;2022-11-20T16:48:11;49.90;;;26.83;;
23490;SDS011;14683;50.038;8.078;2022-11-20T16:50:44;51.83;;;26.27;;
23490;SDS011;14683;50.038;8.078;2022-11-20T16:53:14;60.07;;;29.73;;
23490;SDS011;14683;50.038;8.078;2022-11-20T16:55:40;46.60;;;24.88;;
23490;SDS011;14683;50.038;8.078;2022-11-20T17:00:34;39.83;;;20.60;;
23490;SDS011;14683;50.038;8.078;2022-11-20T17:03:01;41.08;;;20.48;;
23490;SDS011;14683;50.038;8.078;2022-11-20T17:07:54;47.58;;;23.98;;
23490;SDS011;14683;50.038;8.078;2022-11-20T17:12:46;46.17;;;22.58;;
23490;SDS011;14683;50.038;8.078;2022-11-20T17:17:38;46.28;;;22.50;;
23490;SDS011;14683;50.038;8.078;2022-11-20T17:20:04;45.50;;;23.65;;
23490;SDS011;14683;50.038;8.078;2022-11-20T17:22:30;49.72;;;24.83;;
23490;SDS011;14683;50.038;8.078;2022-11-20T17:24:56;44.60;;;24.10;;
23490;SDS011;14683;50.038;8.078;2022-11-20T17:29:49;44.67;;;23.13;;
23490;SDS011;14683;50.038;8.078;2022-11-20T17:34:40;40.15;;;20.75;;
23490;SDS011;14683;50.038;8.078;2022-11-20T17:37:06;44.40;;;23.10;;
23490;SDS011;14683;50.038;8.078;2022-11-20T17:39:32;43.10;;;23.45;;
23490;SDS011;14683;50.038;8.078;2022-11-20T17:41:58;48.00;;;24.98;;
23490;SDS011;14683;50.038;8.078;2022-11-20T17:44:43;50.25;;;26.50;;
23490;SDS011;14683;50.038;8.078;2022-11-20T17:49:35;44.15;;;23.00;;
23490;SDS011;14683;50.038;8.078;2022-11-20T17:54:27;44.80;;;22.48;;
23490;SDS011;14683;50.038;8.078;2022-11-20T17:59:37;42.90;;;24.02;;
23490;SDS011;14683;50.038;8.078;2022-11-20T18:04:29;42.00;;;19.85;;
23490;SDS011;14683;50.038;8.078;2022-11-20T18:09:21;40.58;;;21.27;;
23490;SDS011;14683;50.038;8.078;2022-11-20T18:14:14;40.83;;;22.67;;
23490;SDS011;14683;50.038;8.078;2022-11-20T18:17:01;40.95;;;21.65;;
23490;SDS011;14683;50.038;8.078;2022-11-20T18:19:32;36.88;;;20.85;;
23490;SDS011;14683;50.038;8.078;2022-11-20T18:22:00;36.40;;;21.40;;
23490;SDS011;14683;50.038;8.078;2022-11-20T18:24:30;37.17;;;18.65;;
23490;SDS011;14683;50.038;8.078;2022-11-20T18:26:57;30.58;;;17.20;;
23490;SDS011;14683;50.038;8.078;2022-11-20T18:29:23;31.00;;;17.40;;
23490;SDS011;14683;50.038;8.078;2022-11-20T18:31:49;28.15;;;16.75;;
23490;SDS011;14683;50.038;8.078;2022-11-20T18:36:41;36.15;;;14.93;;
23490;SDS011;14683;50.038;8.078;2022-11-20T18:39:08;27.13;;;15.48;;
23490;SDS011;14683;50.038;8.078;2022-11-20T18:41:35;29.63;;;15.95;;
23490;SDS011;14683;50.038;8.078;2022-11-20T18:44:20;22.20;;;12.25;;
23490;SDS011;14683;50.038;8.078;2022-11-20T18:47:09;19.75;;;11.52;;
23490;SDS011;14683;50.038;8.078;2022-11-20T18:49:36;18.42;;;10.73;;
23490;SDS011;14683;50.038;8.078;2022-11-20T18:54:28;18.92;;;10.50;;
23490;SDS011;14683;50.038;8.078;2022-11-20T18:59:20;15.18;;;8.57;;
23490;SDS011;14683;50.038;8.078;2022-11-20T19:01:46;20.52;;;10.65;;
23490;SDS011;14683;50.038;8.078;2022-11-20T19:04:13;10.38;;;7.35;;
23490;SDS011;14683;50.038;8.078;2022-11-20T19:06:41;10.57;;;5.70;;
23490;SDS011;14683;50.038;8.078;2022-11-20T19:09:09;6.53;;;4.45;;
23490;SDS011;14683;50.038;8.078;2022-11-20T19:11:37;8.38;;;4.03;;
23490;SDS011;14683;50.038;8.078;2022-11-20T19:14:04;4.45;;;3.40;;
23490;SDS011;14683;50.038;8.078;2022-11-20T19:16:30;2.70;;;2.42;;
23490;SDS011;14683;50.038;8.078;2022-11-20T19:21:25;3.63;;;2.13;;
23490;SDS011;14683;50.038;8.078;2022-11-20T19:23:52;3.55;;;2.40;;
23490;SDS011;14683;50.038;8.078;2022-11-20T19:26:20;3.22;;;2.72;;
23490;SDS011;14683;50.038;8.078;2022-11-20T19:28:46;2.45;;;2.00;;
23490;SDS011;14683;50.038;8.078;2022-11-20T19:31:17;2.63;;;2.03;;
23490;SDS011;14683;50.038;8.078;2022-11-20T19:33:44;1.80;;;1.70;;
23490;SDS011;14683;50.038;8.078;2022-11-20T19:36:12;3.38;;;1.65;;
23490;SDS011;14683;50.038;8.078;2022-11-20T19:38:38;3.85;;;1.42;;
23490;SDS011;14683;50.038;8.078;2022-11-20T19:41:05;1.73;;;1.63;;
23490;SDS011;14683;50.038;8.078;2022-11-20T19:43:32;2.75;;;1.77;;
23490;SDS011;14683;50.038;8.078;2022-11-20T19:45:58;4.45;;;2.85;;
23490;SDS011;14683;50.038;8.078;2022-11-20T19:50:50;4.82;;;3.35;;
23490;SDS011;14683;50.038;8.078;2022-11-20T19:53:16;4.20;;;2.65;;
23490;SDS011;14683;50.038;8.078;2022-11-20T19:55:56;1.55;;;1.45;;
23490;SDS011;14683;50.038;8.078;2022-11-20T19:58:22;1.58;;;1.48;;
23490;SDS011;14683;50.038;8.078;2022-11-20T20:00:49;1.90;;;1.80;;
23490;SDS011;14683;50.038;8.078;2022-11-20T20:03:15;3.13;;;2.08;;
23490;SDS011;14683;50.038;8.078;2022-11-20T20:05:41;2.60;;;2.33;;
23490;SDS011;14683;50.038;8.078;2022-11-20T20:10:33;2.03;;;1.83;;
23490;SDS011;14683;50.038;8.078;2022-11-20T20:15:25;3.60;;;2.20;;
23490;SDS011;14683;50.038;8.078;2022-11-20T20:17:51;2.42;;;2.22;;
23490;SDS011;14683;50.038;8.078;2022-11-20T20:20:17;2.60;;;2.13;;
23490;SDS011;14683;50.038;8.078;2022-11-20T20:22:44;2.45;;;2.25;;
23490;SDS011;14683;50.038;8.078;2022-11-20T20:27:36;2.30;;;1.90;;
23490;SDS011;14683;50.038;8.078;2022-11-20T20:32:29;2.20;;;2.00;;
23490;SDS011;14683;50.038;8.078;2022-11-20T20:34:56;2.00;;;1.90;;
23490;SDS011;14683;50.038;8.078;2022-11-20T20:39:48;1.70;;;1.60;;
23490;SDS011;14683;50.038;8.078;2022-11-20T20:42:14;1.80;;;1.50;;
23490;SDS011;14683;50.038;8.078;2022-11-20T20:44:40;2.42;;;1.77;;
23490;SDS011;14683;50.038;8.078;2022-11-20T20:47:31;2.13;;;1.92;;
23490;SDS011;14683;50.038;8.078;2022-11-20T20:50:00;2.00;;;1.90;;
23490;SDS011;14683;50.038;8.078;2022-11-20T20:52:27;2.10;;;1.90;;
23490;SDS011;14683;50.038;8.078;2022-11-20T20:57:22;2.00;;;1.60;;
23490;SDS011;14683;50.038;8.078;2022-11-20T20:59:49;2.47;;;1.73;;
23490;SDS011;14683;50.038;8.078;2022-11-20T21:02:17;1.88;;;1.60;;
23490;SDS011;14683;50.038;8.078;2022-11-20T21:04:48;1.90;;;1.80;;
23490;SDS011;14683;50.038;8.078;2022-11-20T21:07:14;2.05;;;1.70;;
23490;SDS011;14683;50.038;8.078;2022-11-20T21:09:41;2.25;;;1.83;;
23490;SDS011;14683;50.038;8.078;2022-11-20T21:14:33;2.05;;;1.60;;
23490;SDS011;14683;50.038;8.078;2022-11-20T21:16:59;1.90;;;1.80;;
23490;SDS011;14683;50.038;8.078;2022-11-20T21:21:51;2.42;;;1.95;;
23490;SDS011;14683;50.038;8.078;2022-11-20T21:24:32;3.17;;;1.92;;
23490;SDS011;14683;50.038;8.078;2022-11-20T21:27:00;2.00;;;1.85;;
23490;SDS011;14683;50.038;8.078;2022-11-20T21:29:27;2.28;;;1.90;;
23490;SDS011;14683;50.038;8.078;2022-11-20T21:31:54;2.10;;;1.85;;
23490;SDS011;14683;50.038;8.078;2022-11-20T21:34:21;3.13;;;1.85;;
23490;SDS011;14683;50.038;8.078;2022-11-20T21:36:47;3.92;;;2.00;;
23490;SDS011;14683;50.038;8.078;2022-11-20T21:39:13;3.03;;;2.20;;
23490;SDS011;14683;50.038;8.078;2022-11-20T21:41:40;2.72;;;2.15;;
23490;SDS011;14683;50.038;8.078;2022-11-20T21:44:06;2.30;;;1.98;;
